createdAt,value
2022-11-18T00:00:04.438Z,99038.94
2022-11-18T00:03:06.359Z,99037.84
2022-11-18T00:06:09.643Z,99032.69
2022-11-18T00:09:11.509Z,99029.41
2022-11-18T00:12:32.058Z,99016.75
2022-11-18T00:15:33.861Z,99014.88
2022-11-18T00:18:35.812Z,99017.72
2022-11-18T00:21:37.741Z,99016.09
2022-11-18T00:24:39.650Z,99019.00
2022-11-18T00:27:41.519Z,99019.63
2022-11-18T00:30:43.343Z,99023.91
2022-11-18T00:33:45.191Z,99017.78
2022-11-18T00:36:47.320Z,99012.91
2022-11-18T00:39:49.196Z,99008.03
2022-11-18T00:42:53.915Z,99006.75
2022-11-18T00:45:55.788Z,99008.41
2022-11-18T00:48:57.645Z,99001.47
2022-11-18T00:51:59.542Z,98985.31
2022-11-18T00:55:01.489Z,98987.47
2022-11-18T00:58:03.370Z,98983.19
2022-11-18T01:01:05.426Z,98983.06
2022-11-18T01:04:07.487Z,98981.47
2022-11-18T01:07:09.587Z,98989.94
2022-11-18T01:10:11.447Z,99001.38
2022-11-18T01:13:19.844Z,98995.53
2022-11-18T01:16:22.460Z,98980.59
2022-11-18T01:19:24.420Z,98986.87
2022-11-18T01:22:26.307Z,98975.38
2022-11-18T01:25:28.868Z,98976.03
2022-11-18T01:28:30.754Z,98975.28
2022-11-18T01:31:32.661Z,98970.38
2022-11-18T01:34:34.506Z,98967.47
2022-11-18T01:37:36.353Z,98956.37
2022-11-18T01:40:38.553Z,98971.31
2022-11-18T01:43:51.034Z,98968.88
2022-11-18T01:46:52.976Z,98974.56
2022-11-18T01:49:54.791Z,98962.97
2022-11-18T01:52:58.184Z,98969.44
2022-11-18T01:56:00.770Z,98966.63
2022-11-18T01:59:03.819Z,98973.13
2022-11-18T02:02:06.483Z,98984.28
2022-11-18T02:05:09.165Z,98983.19
2022-11-18T02:08:11.040Z,98989.59
2022-11-18T02:11:34.035Z,98981.00
2022-11-18T02:14:37.542Z,98976.84
2022-11-18T02:17:42.470Z,98974.16
2022-11-18T02:20:44.635Z,98975.19
2022-11-18T02:24:05.301Z,98977.31
2022-11-18T02:27:25.904Z,98974.44
2022-11-18T02:30:27.710Z,98973.13
2022-11-18T02:33:36.128Z,98964.56
2022-11-18T02:36:40.323Z,98973.25
2022-11-18T02:39:53.275Z,98961.59
2022-11-18T02:42:56.691Z,98946.91
2022-11-18T02:46:08.782Z,98943.59
2022-11-18T02:49:14.862Z,98945.56
2022-11-18T02:52:16.757Z,98926.53
2022-11-18T02:55:18.674Z,98926.28
2022-11-18T02:58:20.525Z,98917.53
2022-11-18T03:01:30.179Z,98929.47
2022-11-18T03:04:32.125Z,98929.97
2022-11-18T03:07:34.762Z,98921.06
2022-11-18T03:10:38.974Z,98914.53
2022-11-18T03:14:04.242Z,98912.44
2022-11-18T03:17:14.084Z,98915.44
2022-11-18T03:20:22.161Z,98918.81
2022-11-18T03:23:29.743Z,98914.25
2022-11-18T03:26:32.376Z,98919.72
2022-11-18T03:29:35.197Z,98926.41
2022-11-18T03:32:38.791Z,98921.41
2022-11-18T03:35:41.886Z,98934.03
2022-11-18T03:38:44.707Z,98938.50
2022-11-18T03:41:48.241Z,98931.19
2022-11-18T03:44:54.350Z,98930.34
2022-11-18T03:47:58.542Z,98933.16
2022-11-18T03:51:07.546Z,98938.25
2022-11-18T03:54:14.169Z,98945.25
2022-11-18T03:57:17.326Z,98946.47
2022-11-18T04:00:20.401Z,98949.09
2022-11-18T04:03:22.303Z,98948.81
2022-11-18T04:06:43.215Z,98950.81
2022-11-18T04:09:52.120Z,98946.44
2022-11-18T04:13:05.819Z,98943.06
2022-11-18T04:16:09.840Z,98930.75
2022-11-18T04:19:11.782Z,98922.69
2022-11-18T04:22:13.835Z,98909.63
2022-11-18T04:25:15.753Z,98898.78
2022-11-18T04:28:17.604Z,98894.38
2022-11-18T04:31:19.403Z,98898.75
2022-11-18T04:34:21.258Z,98886.72
2022-11-18T04:37:23.090Z,98876.94
2022-11-18T04:40:24.959Z,98876.94
2022-11-18T04:43:26.836Z,98878.41
2022-11-18T04:46:28.635Z,98883.13
2022-11-18T04:49:30.831Z,98887.09
2022-11-18T04:52:32.725Z,98897.31
2022-11-18T04:55:37.716Z,98886.72
2022-11-18T04:58:39.554Z,98901.25
2022-11-18T05:01:41.509Z,98910.72
2022-11-18T05:04:43.399Z,98931.38
2022-11-18T05:07:45.305Z,98922.09
2022-11-18T05:10:47.244Z,98910.37
2022-11-18T05:13:50.039Z,98918.00
2022-11-18T05:16:51.854Z,98905.91
2022-11-18T05:19:53.721Z,98893.44
2022-11-18T05:22:55.560Z,98884.47
2022-11-18T05:26:02.299Z,98882.97
2022-11-18T05:29:04.466Z,98893.53
2022-11-18T05:32:06.253Z,98896.13
2022-11-18T05:35:08.316Z,98892.59
2022-11-18T05:38:10.169Z,98894.78
2022-11-18T05:41:32.324Z,98876.62
2022-11-18T05:44:34.294Z,98884.22
2022-11-18T05:47:56.099Z,98881.94
2022-11-18T05:50:57.964Z,98873.50
2022-11-18T05:53:59.861Z,98864.59
2022-11-18T05:57:01.883Z,98890.59
2022-11-18T06:00:04.074Z,98888.22
2022-11-18T06:03:08.208Z,98889.66
2022-11-18T06:06:10.239Z,98884.81
2022-11-18T06:09:12.106Z,98886.50
2022-11-18T06:12:17.486Z,98888.19
2022-11-18T06:15:30.093Z,98894.81
2022-11-18T06:18:32.114Z,98889.56
2022-11-18T06:21:33.983Z,98897.63
2022-11-18T06:24:35.940Z,98892.41
2022-11-18T06:27:37.891Z,98894.94
2022-11-18T06:30:39.766Z,98888.16
2022-11-18T06:33:41.608Z,98893.16
2022-11-18T06:36:43.470Z,98892.78
2022-11-18T06:39:45.376Z,98887.06
2022-11-18T06:43:06.087Z,98883.66
2022-11-18T06:46:35.668Z,98883.66
2022-11-18T06:49:37.585Z,98884.19
2022-11-18T06:52:39.637Z,98884.78
2022-11-18T06:55:41.550Z,98884.94
2022-11-18T06:58:43.503Z,98890.25
2022-11-18T07:01:45.940Z,98891.81
2022-11-18T07:04:47.834Z,98890.97
2022-11-18T07:07:49.669Z,98887.38
2022-11-18T07:10:52.194Z,98889.69
2022-11-18T07:13:54.271Z,98886.28
2022-11-18T07:16:56.146Z,98891.75
2022-11-18T07:19:58.030Z,98896.16
2022-11-18T07:22:59.979Z,98889.47
2022-11-18T07:26:01.887Z,98886.72
2022-11-18T07:29:04.004Z,98878.16
2022-11-18T07:32:06.304Z,98881.63
2022-11-18T07:35:08.399Z,98882.47
2022-11-18T07:38:10.351Z,98877.69
2022-11-18T07:41:32.770Z,98876.25
2022-11-18T07:44:34.670Z,98871.06
2022-11-18T07:47:36.627Z,98866.63
2022-11-18T07:50:41.937Z,98858.88
2022-11-18T07:53:46.598Z,98839.91
2022-11-18T07:56:48.531Z,98834.59
2022-11-18T07:59:50.502Z,98826.44
2022-11-18T08:02:52.431Z,98823.69
2022-11-18T08:06:00.414Z,98823.38
2022-11-18T08:09:02.463Z,98816.75
2022-11-18T08:12:04.417Z,98833.75
2022-11-18T08:15:06.476Z,98853.84
2022-11-18T08:18:13.360Z,98853.94
2022-11-18T08:21:16.067Z,98847.28
2022-11-18T08:24:17.921Z,98845.09
2022-11-18T08:27:19.777Z,98848.41
2022-11-18T08:30:21.709Z,98855.47
2022-11-18T08:33:23.547Z,98851.94
2022-11-18T08:36:26.397Z,98841.25
2022-11-18T08:39:28.304Z,98836.63
2022-11-18T08:42:34.270Z,98831.47
2022-11-18T08:45:37.209Z,98831.09
2022-11-18T08:48:39.146Z,98824.75
2022-11-18T08:51:41.019Z,98816.09
2022-11-18T08:54:43.024Z,98816.41
2022-11-18T08:57:45.089Z,98817.97
2022-11-18T09:00:47.000Z,98804.47
2022-11-18T09:03:49.082Z,98805.97
2022-11-18T09:06:50.926Z,98801.88
2022-11-18T09:09:52.895Z,98798.94
2022-11-18T09:12:54.856Z,98802.88
2022-11-18T09:16:00.089Z,98812.37
2022-11-18T09:19:24.491Z,98816.19
2022-11-18T09:22:23.910Z,98812.91
2022-11-18T09:25:25.868Z,98816.12
2022-11-18T09:28:28.029Z,98808.50
2022-11-18T09:31:29.931Z,98806.53
2022-11-18T09:34:31.873Z,98804.25
2022-11-18T09:37:33.723Z,98800.84
2022-11-18T09:40:54.653Z,98799.06
2022-11-18T09:43:56.619Z,98782.94
2022-11-18T09:47:17.466Z,98789.03
2022-11-18T09:50:48.377Z,98791.75
2022-11-18T09:53:42.992Z,98786.31
2022-11-18T09:56:45.063Z,98776.81
2022-11-18T09:59:46.992Z,98784.56
2022-11-18T10:02:51.519Z,98776.34
2022-11-18T10:06:16.039Z,98762.78
2022-11-18T10:09:24.122Z,98754.19
2022-11-18T10:12:29.041Z,98745.16
2022-11-18T10:15:38.471Z,98748.31
2022-11-18T10:18:59.790Z,98752.38
2022-11-18T10:22:11.740Z,98739.41
2022-11-18T10:25:17.884Z,98732.81
2022-11-18T10:28:29.712Z,98735.50
2022-11-18T10:31:31.629Z,98729.97
2022-11-18T10:34:34.259Z,98717.31
2022-11-18T10:38:07.307Z,98713.16
2022-11-18T10:41:00.932Z,98718.81
2022-11-18T10:44:05.757Z,98716.44
2022-11-18T10:47:26.591Z,98705.00
2022-11-18T10:50:28.338Z,98715.47
2022-11-18T10:53:37.509Z,98721.19
2022-11-18T10:56:46.757Z,98714.13
2022-11-18T10:59:53.227Z,98717.38
2022-11-18T11:02:55.112Z,98718.09
2022-11-18T11:06:18.319Z,98716.84
2022-11-18T11:09:27.856Z,98711.06
2022-11-18T11:12:31.855Z,98721.88
2022-11-18T11:15:38.082Z,98703.09
2022-11-18T11:18:42.847Z,98709.78
2022-11-18T11:21:44.690Z,98718.19
2022-11-18T11:24:46.806Z,98716.66
2022-11-18T11:31:17.768Z,98717.72
2022-11-18T11:34:33.913Z,98723.56
2022-11-18T11:37:46.714Z,98724.75
2022-11-18T11:40:54.851Z,98732.53
2022-11-18T11:44:07.773Z,98738.16
2022-11-18T11:47:43.396Z,98726.84
2022-11-18T11:51:08.609Z,98734.03
2022-11-18T11:54:33.246Z,98721.97
2022-11-18T11:57:38.222Z,98725.78
2022-11-18T12:00:41.302Z,98726.59
2022-11-18T12:03:51.677Z,98730.72
2022-11-18T12:06:54.193Z,98723.25
2022-11-18T12:10:02.217Z,98724.38
2022-11-18T12:13:13.230Z,98725.31
2022-11-18T12:16:29.513Z,98723.19
2022-11-18T12:19:31.368Z,98713.59
2022-11-18T12:22:52.040Z,98699.34
2022-11-18T12:25:55.333Z,98703.69
2022-11-18T12:28:57.171Z,98699.31
2022-11-18T12:31:59.147Z,98695.59
2022-11-18T12:35:13.333Z,98695.72
2022-11-18T12:38:28.196Z,98686.91
2022-11-18T12:41:58.000Z,98681.50
2022-11-18T12:44:59.860Z,98681.31
2022-11-18T12:48:01.673Z,98677.47
2022-11-18T12:51:11.685Z,98679.59
2022-11-18T12:54:22.117Z,98681.31
2022-11-18T12:57:28.314Z,98680.34
2022-11-18T13:00:31.166Z,98687.19
2022-11-18T13:03:33.435Z,98680.34
2022-11-18T13:06:36.019Z,98679.38
2022-11-18T13:09:37.856Z,98684.47
2022-11-18T13:12:39.801Z,98695.88
2022-11-18T13:16:03.772Z,98696.31
2022-11-18T13:19:05.579Z,98707.72
2022-11-18T13:22:34.637Z,98720.75
2022-11-18T13:25:36.619Z,98720.72
2022-11-18T13:28:39.222Z,98734.22
2022-11-18T13:31:40.976Z,98731.78
2022-11-18T13:34:53.090Z,98734.41
2022-11-18T13:38:01.380Z,98740.22
2022-11-18T13:41:08.279Z,98736.13
2022-11-18T13:44:20.805Z,98733.56
2022-11-18T13:47:31.907Z,98739.75
2022-11-18T13:50:37.503Z,98728.31
2022-11-18T13:53:39.330Z,98735.63
2022-11-18T13:56:41.142Z,98739.66
2022-11-18T13:59:43.074Z,98729.13
2022-11-18T14:02:46.413Z,98740.50
2022-11-18T14:05:54.597Z,98735.53
2022-11-18T14:09:05.622Z,98722.94
2022-11-18T14:12:21.552Z,98724.16
2022-11-18T14:15:34.151Z,98724.81
2022-11-18T14:18:37.392Z,98723.81
2022-11-18T14:21:39.271Z,98732.69
2022-11-18T14:24:42.160Z,98731.88
2022-11-18T14:27:51.402Z,98725.91
2022-11-18T14:30:57.531Z,98729.19
2022-11-18T14:34:06.421Z,98729.91
2022-11-18T14:37:12.759Z,98737.13
2022-11-18T14:40:14.650Z,98733.69
2022-11-18T14:43:16.557Z,98737.34
2022-11-18T14:46:18.826Z,98734.44
2022-11-18T14:49:22.429Z,98730.00
2022-11-18T14:52:24.672Z,98738.09
2022-11-18T14:55:26.542Z,98735.87
2022-11-18T14:58:28.547Z,98734.75
2022-11-18T15:01:31.173Z,98730.47
2022-11-18T15:04:33.145Z,98733.38
2022-11-18T15:07:35.323Z,98729.31
2022-11-18T15:10:37.266Z,98720.75
2022-11-18T15:13:39.303Z,98716.59
2022-11-18T15:16:41.271Z,98717.72
2022-11-18T15:19:43.187Z,98710.00
2022-11-18T15:22:45.072Z,98724.00
2022-11-18T15:25:46.889Z,98727.22
2022-11-18T15:28:49.148Z,98731.06
2022-11-18T15:31:51.220Z,98727.28
2022-11-18T15:34:53.089Z,98731.81
2022-11-18T15:37:55.041Z,98730.72
2022-11-18T15:40:57.456Z,98736.63
2022-11-18T15:43:59.939Z,98734.75
2022-11-18T15:47:01.936Z,98736.97
2022-11-18T15:50:03.786Z,98737.09
2022-11-18T15:53:05.600Z,98729.28
2022-11-18T15:56:14.289Z,98742.69
2022-11-18T15:59:16.200Z,98735.25
2022-11-18T16:02:18.057Z,98735.50
2022-11-18T16:05:19.904Z,98748.38
2022-11-18T16:08:21.690Z,98755.66
2022-11-18T16:11:42.323Z,98751.59
2022-11-18T16:15:04.113Z,98752.00
2022-11-18T16:18:05.995Z,98751.66
2022-11-18T16:21:07.874Z,98758.94
2022-11-18T16:24:11.723Z,98755.69
2022-11-18T16:27:13.565Z,98755.47
2022-11-18T16:30:54.045Z,98756.03
2022-11-18T16:33:55.981Z,98765.13
2022-11-18T16:36:59.650Z,98759.13
2022-11-18T16:40:01.500Z,98755.16
2022-11-18T16:43:03.387Z,98759.44
2022-11-18T16:46:09.205Z,98758.22
2022-11-18T16:49:14.080Z,98771.28
2022-11-18T16:52:15.940Z,98767.97
2022-11-18T16:55:17.754Z,98763.53
2022-11-18T16:58:19.721Z,98767.53
2022-11-18T17:01:27.796Z,98761.25
2022-11-18T17:04:31.227Z,98772.19
2022-11-18T17:07:38.247Z,98770.22
2022-11-18T17:10:40.259Z,98777.91
2022-11-18T17:13:42.249Z,98785.53
2022-11-18T17:16:44.107Z,98780.41
2022-11-18T17:19:46.188Z,98782.28
2022-11-18T17:22:48.138Z,98796.97
2022-11-18T17:25:49.967Z,98793.53
2022-11-18T17:28:51.896Z,98795.09
2022-11-18T17:31:54.475Z,98805.19
2022-11-18T17:34:56.311Z,98801.84
2022-11-18T17:37:58.349Z,98799.00
2022-11-18T17:41:00.203Z,98803.34
2022-11-18T17:44:02.862Z,98794.81
2022-11-18T17:47:04.939Z,98804.94
2022-11-18T17:50:06.999Z,98819.53
2022-11-18T17:53:08.874Z,98815.56
2022-11-18T17:56:10.719Z,98822.84
2022-11-18T17:59:14.678Z,98826.72
2022-11-18T18:02:18.732Z,98816.06
2022-11-18T18:05:20.730Z,98815.34
2022-11-18T18:08:22.621Z,98818.03
2022-11-18T18:11:24.824Z,98828.59
2022-11-18T18:14:26.668Z,98827.00
2022-11-18T18:17:28.524Z,98829.41
2022-11-18T18:20:30.370Z,98832.12
2022-11-18T18:23:32.204Z,98841.28
2022-11-18T18:26:34.071Z,98833.44
2022-11-18T18:29:35.843Z,98848.88
2022-11-18T18:32:37.692Z,98841.91
2022-11-18T18:35:40.382Z,98842.84
2022-11-18T18:38:42.465Z,98851.31
2022-11-18T18:41:44.309Z,98859.94
2022-11-18T18:45:04.760Z,98856.19
2022-11-18T18:48:06.646Z,98868.38
2022-11-18T18:51:08.497Z,98859.13
2022-11-18T18:54:10.848Z,98868.28
2022-11-18T18:57:12.813Z,98863.25
2022-11-18T19:00:14.749Z,98871.84
2022-11-18T19:03:16.677Z,98869.50
2022-11-18T19:06:47.859Z,98872.00
2022-11-18T19:09:40.347Z,98878.50
2022-11-18T19:12:46.805Z,98892.59
2022-11-18T19:15:48.721Z,98893.09
2022-11-18T19:18:50.684Z,98896.97
2022-11-18T19:21:52.497Z,98899.03
2022-11-18T19:24:54.790Z,98907.75
2022-11-18T19:27:57.142Z,98901.81
2022-11-18T19:30:59.473Z,98916.38
2022-11-18T19:34:01.398Z,98920.03
2022-11-18T19:37:03.344Z,98928.25
2022-11-18T19:40:08.991Z,98923.03
2022-11-18T19:43:12.623Z,98931.81
2022-11-18T19:46:14.545Z,98929.88
2022-11-18T19:49:17.008Z,98940.13
2022-11-18T19:52:19.039Z,98939.69
2022-11-18T19:55:20.898Z,98944.34
2022-11-18T19:58:23.128Z,98954.38
2022-11-18T20:01:27.460Z,98964.41
2022-11-18T20:04:29.471Z,98973.75
2022-11-18T20:07:31.455Z,98980.09
2022-11-18T20:10:33.326Z,98981.84
2022-11-18T20:13:35.410Z,98994.81
2022-11-18T20:16:37.380Z,98995.16
2022-11-18T20:19:39.309Z,99005.47
2022-11-18T20:22:41.260Z,99018.53
2022-11-18T20:25:43.125Z,99024.22
2022-11-18T20:28:45.304Z,99029.09
2022-11-18T20:31:47.145Z,99035.25
2022-11-18T20:34:49.051Z,99045.94
2022-11-18T20:37:50.881Z,99042.34
2022-11-18T20:40:52.806Z,99048.66
2022-11-18T20:43:54.666Z,99055.37
2022-11-18T20:46:56.506Z,99060.53
2022-11-18T20:49:59.273Z,99070.87
2022-11-18T20:53:01.148Z,99072.50
2022-11-18T20:56:03.040Z,99077.56
2022-11-18T20:59:04.951Z,99085.87
2022-11-18T21:02:06.892Z,99090.34
2022-11-18T21:05:08.799Z,99097.28
2022-11-18T21:08:10.640Z,99103.28
2022-11-18T21:11:12.972Z,99110.78
2022-11-18T21:14:23.281Z,99118.88
2022-11-18T21:17:25.635Z,99122.25
2022-11-18T21:20:46.006Z,99136.34
2022-11-18T21:23:47.899Z,99138.53
2022-11-18T21:26:50.441Z,99151.16
2022-11-18T21:29:52.281Z,99156.78
2022-11-18T21:32:54.101Z,99157.88
2022-11-18T21:35:58.116Z,99158.94
2022-11-18T21:39:00.258Z,99168.25
2022-11-18T21:42:02.171Z,99168.81
2022-11-18T21:45:04.185Z,99176.75
2022-11-18T21:48:06.104Z,99181.28
2022-11-18T21:51:09.590Z,99199.19
2022-11-18T21:54:12.635Z,99194.88
2022-11-18T21:57:14.567Z,99199.03
2022-11-18T22:00:16.909Z,99203.69
2022-11-18T22:03:18.774Z,99203.38
2022-11-18T22:06:20.658Z,99200.22
2022-11-18T22:09:22.463Z,99199.94
2022-11-18T22:12:24.408Z,99196.94
2022-11-18T22:15:26.236Z,99215.09
2022-11-18T22:18:28.889Z,99220.41
2022-11-18T22:21:30.669Z,99213.03
2022-11-18T22:24:32.488Z,99217.31
2022-11-18T22:27:34.322Z,99233.13
2022-11-18T22:30:36.144Z,99233.72
2022-11-18T22:33:38.078Z,99237.88
2022-11-18T22:36:39.974Z,99251.66
2022-11-18T22:39:42.348Z,99248.03
2022-11-18T22:42:50.514Z,99261.19
2022-11-18T22:46:02.099Z,99265.25
2022-11-18T22:49:04.514Z,99270.81
2022-11-18T22:52:06.399Z,99262.22
2022-11-18T22:55:08.536Z,99278.09
2022-11-18T22:58:10.489Z,99282.69
2022-11-18T23:01:13.232Z,99290.13
2022-11-18T23:04:15.044Z,99294.75
2022-11-18T23:07:17.043Z,99273.66
2022-11-18T23:10:18.906Z,99282.19
2022-11-18T23:13:39.420Z,99293.44
2022-11-18T23:16:41.735Z,99292.37
2022-11-18T23:19:43.984Z,99301.63
2022-11-18T23:22:46.032Z,99294.94
2022-11-18T23:25:47.961Z,99295.31
2022-11-18T23:28:49.858Z,99301.16
2022-11-18T23:31:52.861Z,99297.13
2022-11-18T23:34:54.704Z,99290.97
2022-11-18T23:37:56.638Z,99299.19
2022-11-18T23:40:58.994Z,99306.97
2022-11-18T23:44:00.850Z,99315.72
2022-11-18T23:47:02.681Z,99328.03
2022-11-18T23:50:04.608Z,99331.88
2022-11-18T23:53:06.481Z,99323.53
2022-11-18T23:56:12.183Z,99342.75
2022-11-18T23:59:14.082Z,99335.56
